Time;durP1;ratioP1;P1;durP2;ratioP2;P2;SDS_P1;SDS_P2;PMS_P1;PMS_P2;Temp;Humidity;BMP_temperature;BMP_pressure;BME280_temperature;BME280_humidity;BME280_pressure;Samples;Min_cycle;Max_cycle;Signal;HPM_P1;HPM_P2
2023/04/27 00:00:40;;;;;;;3.15;2.90;;;;;;;6.21;91.93;98698.53;4136149;28;20864;-50
2023/04/27 00:02:41;;;;;;;2.83;2.63;;;;;;;6.31;91.99;98703.50;4136354;28;20226;-50
2023/04/27 00:04:43;;;;;;;3.28;2.47;;;;;;;6.19;92.17;98700.66;4136274;28;20236;-49
2023/04/27 00:06:49;;;;;;;8.40;3.03;;;;;;;6.17;91.76;98701.91;4118720;28;20250;-50
2023/04/27 00:08:51;;;;;;;4.53;3.20;;;;;;;6.19;92.09;98699.81;4139912;28;20301;-50
2023/04/27 00:10:53;;;;;;;3.13;2.83;;;;;;;6.14;92.39;98696.91;4152993;28;20315;-49
2023/04/27 00:12:55;;;;;;;5.20;3.20;;;;;;;6.00;92.60;98689.88;4136105;28;20237;-51
2023/04/27 00:14:57;;;;;;;9.55;3.15;;;;;;;6.02;92.11;98687.81;4117569;28;20206;-50
2023/04/27 00:16:58;;;;;;;7.40;4.03;;;;;;;5.99;92.62;98688.22;4153607;28;20646;-50
2023/04/27 00:19:00;;;;;;;4.88;3.08;;;;;;;5.89;93.08;98685.16;4122886;28;20217;-51
2023/04/27 00:21:02;;;;;;;4.75;2.65;;;;;;;5.82;92.57;98687.06;4138030;28;20213;-50
2023/04/27 00:23:04;;;;;;;4.10;3.65;;;;;;;5.81;93.24;98685.38;4136035;28;20249;-50
2023/04/27 00:25:06;;;;;;;9.60;5.00;;;;;;;5.82;93.83;98687.06;4152400;28;20262;-49
2023/04/27 00:27:08;;;;;;;3.45;3.03;;;;;;;5.82;94.29;98687.06;4142605;28;20645;-49
2023/04/27 00:29:10;;;;;;;6.28;3.70;;;;;;;5.75;94.36;98687.03;4143294;28;20301;-50
2023/04/27 00:31:12;;;;;;;4.35;3.95;;;;;;;5.76;94.75;98687.88;4138013;28;20236;-50
2023/04/27 00:33:15;;;;;;;3.47;2.90;;;;;;;5.78;94.74;98691.22;4143669;28;20241;-50
2023/04/27 00:35:17;;;;;;;7.13;3.75;;;;;;;5.86;94.64;98693.72;4135421;28;20213;-49
2023/04/27 00:37:19;;;;;;;4.20;3.10;;;;;;;5.70;94.22;98696.88;4137228;28;20209;-49
2023/04/27 00:39:21;;;;;;;4.93;2.92;;;;;;;5.68;94.54;98697.09;4136122;28;20239;-50
2023/04/27 00:41:23;;;;;;;4.45;2.75;;;;;;;5.63;95.24;98698.78;4136644;28;20308;-50
2023/04/27 00:43:25;;;;;;;4.10;3.58;;;;;;;5.58;94.76;98706.75;4134612;28;20749;-50
2023/04/27 00:45:27;;;;;;;6.30;2.97;;;;;;;5.58;95.12;98695.88;4136884;28;20260;-50
2023/04/27 00:47:38;;;;;;;2.83;2.63;;;;;;;5.49;95.31;98697.19;4152267;28;20228;-50
2023/04/27 00:49:40;;;;;;;3.65;2.67;;;;;;;5.45;95.36;98685.91;4141034;28;20241;-49
2023/04/27 00:51:42;;;;;;;7.57;2.80;;;;;;;5.47;95.81;98678.38;4138462;28;20233;-50
2023/04/27 00:53:44;;;;;;;3.42;2.97;;;;;;;5.57;95.61;98683.38;4139742;28;20272;-49
2023/04/27 00:55:46;;;;;;;3.97;2.38;;;;;;;5.37;95.37;98674.47;4123016;28;20237;-49
2023/04/27 00:57:47;;;;;;;6.90;2.38;;;;;;;5.31;95.52;98678.03;4138692;28;20253;-49
2023/04/27 00:59:49;;;;;;;3.30;2.92;;;;;;;5.35;95.92;98677.38;4150375;28;20360;-49
2023/04/27 01:01:52;;;;;;;3.40;3.10;;;;;;;5.33;95.65;98681.34;4139630;28;20232;-50
2023/04/27 01:03:54;;;;;;;3.38;3.10;;;;;;;5.37;95.57;98685.31;4140282;28;20213;-49
2023/04/27 01:05:58;;;;;;;5.70;3.33;;;;;;;5.25;95.54;98678.88;4124162;28;20721;-49
2023/04/27 01:07:59;;;;;;;4.18;3.38;;;;;;;5.26;95.24;98685.94;4134345;28;20205;-49
2023/04/27 01:10:01;;;;;;;6.00;4.15;;;;;;;5.31;95.48;98694.31;4140112;28;20233;-50
2023/04/27 01:12:03;;;;;;;6.13;5.13;;;;;;;5.34;95.69;98693.84;4137812;28;20690;-51
2023/04/27 01:14:06;;;;;;;12.13;5.28;;;;;;;5.28;95.36;98689.28;4123964;28;20717;-49
2023/04/27 01:16:08;;;;;;;6.88;6.05;;;;;;;5.31;95.70;98688.88;4136952;28;20213;-50
2023/04/27 01:18:12;;;;;;;6.70;4.72;;;;;;;5.29;95.87;98699.94;4151582;28;20693;-49
2023/04/27 01:20:14;;;;;;;5.95;4.72;;;;;;;5.33;95.72;98692.19;4135799;28;20268;-50
2023/04/27 01:22:16;;;;;;;7.53;3.92;;;;;;;5.36;96.39;98695.31;4144256;28;20205;-49
2023/04/27 01:24:18;;;;;;;5.07;4.43;;;;;;;5.27;96.57;98688.47;4136823;28;20221;-50
2023/04/27 01:26:21;;;;;;;6.07;4.10;;;;;;;5.31;97.15;98695.16;4127467;28;20214;-50
2023/04/27 01:28:23;;;;;;;4.85;2.88;;;;;;;5.29;97.32;98686.38;4123862;28;20206;-50
2023/04/27 01:30:27;;;;;;;5.22;3.45;;;;;;;5.36;97.64;98691.78;4140246;28;20858;-49
2023/04/27 01:32:28;;;;;;;3.97;3.15;;;;;;;5.38;97.17;98689.69;4124489;28;20205;-50
2023/04/27 01:34:31;;;;;;;4.18;3.47;;;;;;;5.44;97.81;98694.25;4137922;28;20217;-50
2023/04/27 01:36:32;;;;;;;3.25;3.05;;;;;;;5.52;98.05;98694.03;4134934;28;20299;-50
2023/04/27 01:38:34;;;;;;;3.47;3.22;;;;;;;5.42;98.22;98693.66;4139588;28;20247;-50
2023/04/27 01:40:36;;;;;;;3.53;2.95;;;;;;;5.38;98.00;98689.69;4134659;28;20337;-49
2023/04/27 01:42:38;;;;;;;3.30;3.10;;;;;;;5.45;98.09;98701.34;4140285;28;20765;-49
2023/04/27 01:44:40;;;;;;;3.70;3.40;;;;;;;5.50;97.68;98698.84;4120997;28;20210;-50
2023/04/27 01:46:41;;;;;;;8.93;3.55;;;;;;;5.46;96.99;98694.88;4139946;28;20209;-50
2023/04/27 01:48:43;;;;;;;4.85;3.17;;;;;;;5.42;96.59;98693.66;4151785;28;20259;-50
2023/04/27 01:50:45;;;;;;;4.43;2.95;;;;;;;5.62;96.24;98699.84;4134709;28;20251;-50
2023/04/27 01:52:53;;;;;;;5.82;2.80;;;;;;;5.60;96.18;98694.63;4134928;28;20610;-50
2023/04/27 01:54:55;;;;;;;9.07;2.85;;;;;;;5.49;96.18;98699.91;4134086;28;20204;-49
2023/04/27 01:56:57;;;;;;;3.75;2.92;;;;;;;5.65;96.18;98702.13;4140590;28;20328;-49
2023/04/27 01:58:59;;;;;;;5.32;2.40;;;;;;;5.58;96.15;98695.88;4124689;28;20211;-49
2023/04/27 02:01:00;;;;;;;4.55;2.97;;;;;;;5.57;96.40;98699.66;4133162;28;20332;-51
2023/04/27 02:03:02;;;;;;;3.25;2.95;;;;;;;5.54;95.92;98700.06;4151861;28;20315;-50
2023/04/27 02:05:05;;;;;;;5.00;2.63;;;;;;;5.50;95.62;98698.84;4135721;28;20695;-50
2023/04/27 02:07:07;;;;;;;3.92;2.45;;;;;;;5.49;96.48;98700.72;4134557;28;20272;-49
2023/04/27 02:09:08;;;;;;;2.50;2.28;;;;;;;5.45;97.00;98702.19;4135600;28;20702;-50
2023/04/27 02:11:10;;;;;;;7.53;5.10;;;;;;;5.45;96.74;98706.78;4136366;28;20213;-50
2023/04/27 02:13:12;;;;;;;3.35;3.05;;;;;;;5.41;96.81;98700.94;4139158;28;20209;-50
2023/04/27 02:15:14;;;;;;;2.80;2.60;;;;;;;5.40;97.34;98698.44;4135402;28;21008;-51
2023/04/27 02:17:16;;;;;;;3.22;2.53;;;;;;;5.38;96.96;98705.97;4136216;28;20746;-51
2023/04/27 02:19:18;;;;;;;3.08;2.70;;;;;;;5.39;97.28;98702.19;4132929;28;20279;-49
2023/04/27 02:21:27;;;;;;;5.88;3.17;;;;;;;5.33;97.10;98706.59;4137534;28;20213;-50
2023/04/27 02:23:28;;;;;;;4.35;2.28;;;;;;;5.28;97.15;98705.56;4142819;28;20780;-50
2023/04/27 02:25:30;;;;;;;3.63;2.25;;;;;;;5.19;96.90;98701.41;4136265;28;20233;-50
2023/04/27 02:27:32;;;;;;;3.53;2.80;;;;;;;5.19;97.20;98693.28;4128636;28;20232;-50
2023/04/27 02:29:37;;;;;;;7.35;3.13;;;;;;;5.13;97.11;98701.44;4139640;28;20238;-50
2023/04/27 02:31:40;;;;;;;4.57;2.80;;;;;;;5.19;96.96;98712.25;4135397;28;20718;-50
2023/04/27 02:33:41;;;;;;;3.15;2.60;;;;;;;5.13;97.21;98708.53;4139132;28;20216;-50
2023/04/27 02:35:43;;;;;;;2.60;2.40;;;;;;;5.15;96.83;98711.03;4159406;28;20272;-49
2023/04/27 02:37:45;;;;;;;5.63;2.20;;;;;;;5.22;97.60;98718.09;4125889;28;20298;-49
2023/04/27 02:39:47;;;;;;;3.25;2.63;;;;;;;5.27;98.07;98720.16;4126240;28;20276;-49
2023/04/27 02:41:48;;;;;;;2.35;1.80;;;;;;;5.27;98.02;98726.44;4124018;28;20206;-50
2023/04/27 02:44:12;;;;;;;2.35;2.20;;;;;;;5.28;98.02;98716.41;4136209;28;20921;-49
2023/04/27 02:46:13;;;;;;;2.67;2.47;;;;;;;5.27;98.33;98720.16;4143206;28;20209;-50
2023/04/27 02:48:15;;;;;;;2.42;2.22;;;;;;;5.28;98.63;98724.53;4136624;28;20237;-50
2023/04/27 02:50:17;;;;;;;2.50;2.35;;;;;;;5.33;99.06;98719.31;4136116;28;20228;-50
2023/04/27 02:52:19;;;;;;;2.88;2.20;;;;;;;5.31;99.21;98713.28;4142291;28;20248;-50
2023/04/27 02:54:21;;;;;;;3.50;2.53;;;;;;;5.32;99.22;98723.94;4135726;28;20237;-50
2023/04/27 02:56:22;;;;;;;3.17;2.47;;;;;;;5.38;98.50;98716.81;4138281;28;20248;-49
2023/04/27 02:58:25;;;;;;;3.25;2.33;;;;;;;5.45;98.71;98717.63;4123882;28;20214;-49
2023/04/27 03:00:27;;;;;;;4.10;2.40;;;;;;;5.45;99.02;98717.63;4139156;28;20229;-51
2023/04/27 03:02:28;;;;;;;6.95;3.25;;;;;;;5.46;98.87;98713.88;4151791;28;20243;-50
2023/04/27 03:04:30;;;;;;;2.80;2.50;;;;;;;5.49;99.71;98725.13;4152497;28;20282;-50
2023/04/27 03:06:32;;;;;;;5.55;3.13;;;;;;;5.42;99.38;98713.47;4156866;28;20263;-50
2023/04/27 03:08:48;;;;;;;3.13;2.40;;;;;;;5.44;99.50;98719.50;4123952;28;20293;-49
2023/04/27 03:10:50;;;;;;;6.05;2.88;;;;;;;5.46;99.74;98720.16;4156312;28;20205;-51
2023/04/27 03:12:52;;;;;;;2.85;2.65;;;;;;;5.38;99.42;98716.81;4142058;28;20209;-50
2023/04/27 03:14:53;;;;;;;3.80;2.80;;;;;;;5.47;98.85;98710.09;4138952;28;20663;-50
2023/04/27 03:16:56;;;;;;;5.80;2.72;;;;;;;5.38;98.49;98712.25;4123399;28;20250;-49
2023/04/27 03:18:58;;;;;;;2.83;2.50;;;;;;;5.38;98.46;98712.25;4154495;28;20244;-50
2023/04/27 03:21:10;;;;;;;3.78;2.63;;;;;;;5.52;97.63;98713.88;4152319;28;20204;-51
2023/04/27 03:23:11;;;;;;;5.10;2.53;;;;;;;5.41;97.40;98713.66;4143534;28;20237;-49
2023/04/27 03:25:13;;;;;;;3.33;2.28;;;;;;;5.56;97.15;98708.84;4137510;28;20233;-49
2023/04/27 03:27:15;;;;;;;3.65;3.08;;;;;;;5.42;97.47;98707.22;4138134;28;20212;-49
2023/04/27 03:29:17;;;;;;;11.93;3.47;;;;;;;5.45;97.48;98695.94;4140969;28;20233;-50
2023/04/27 03:31:41;;;;;;;4.13;2.50;;;;;;;5.41;97.59;98697.38;4141980;28;20236;-49
2023/04/27 03:33:44;;;;;;;2.72;2.35;;;;;;;5.45;98.06;98695.94;4139587;28;20201;-49
2023/04/27 03:35:56;;;;;;;5.55;2.78;;;;;;;5.46;97.86;98698.44;4129375;28;20280;-49
2023/04/27 03:37:58;;;;;;;2.95;2.72;;;;;;;5.42;97.70;98707.22;4136863;28;20216;-50
2023/04/27 03:40:00;;;;;;;2.95;2.72;;;;;;;5.46;97.47;98698.44;4140208;28;20226;-50
2023/04/27 03:42:02;;;;;;;2.95;2.75;;;;;;;5.51;98.05;98705.94;4141380;28;20236;-49
2023/04/27 03:44:04;;;;;;;9.02;3.42;;;;;;;5.50;98.26;98710.50;4143419;28;20221;-51
2023/04/27 03:46:06;;;;;;;2.75;2.45;;;;;;;5.49;98.69;98713.47;4137887;28;20238;-50
2023/04/27 03:48:09;;;;;;;6.07;2.95;;;;;;;5.53;98.92;98709.25;4119868;28;20214;-49
2023/04/27 03:50:15;;;;;;;3.30;3.00;;;;;;;5.49;98.31;98713.47;4151387;28;20224;-49
2023/04/27 03:52:17;;;;;;;6.30;2.85;;;;;;;5.52;98.36;98713.03;4126205;28;20229;-50
2023/04/27 03:54:20;;;;;;;9.35;3.20;;;;;;;5.59;99.25;98716.53;4133922;28;20237;-50
2023/04/27 03:56:21;;;;;;;3.05;2.85;;;;;;;5.57;99.09;98718.66;4134570;28;20579;-50
2023/04/27 03:58:23;;;;;;;7.18;3.10;;;;;;;5.54;98.92;98711.75;4137154;28;20284;-49
2023/04/27 04:00:25;;;;;;;4.57;3.65;;;;;;;5.51;98.82;98705.94;4120124;28;20277;-50
2023/04/27 04:02:26;;;;;;;3.70;3.15;;;;;;;5.54;98.85;98716.34;4133906;28;20322;-50
2023/04/27 04:04:28;;;;;;;6.35;3.42;;;;;;;5.49;98.96;98718.88;4150783;28;20234;-51
2023/04/27 04:06:31;;;;;;;5.05;3.40;;;;;;;5.62;98.58;98714.25;4137203;28;20217;-49
2023/04/27 04:08:33;;;;;;;4.72;3.53;;;;;;;5.58;98.86;98717.59;4139628;28;20332;-50
2023/04/27 04:10:34;;;;;;;4.32;3.38;;;;;;;5.49;99.05;98710.75;4139864;28;20241;-50
2023/04/27 04:12:37;;;;;;;3.65;3.35;;;;;;;5.49;98.61;98716.19;4137107;28;20217;-49
2023/04/27 04:14:39;;;;;;;6.32;2.92;;;;;;;5.31;99.26;98716.00;4139069;28;20208;-49
2023/04/27 04:16:54;;;;;;;4.45;4.05;;;;;;;5.38;98.68;98717.66;4120478;28;20214;-49
2023/04/27 04:18:56;;;;;;;5.05;3.70;;;;;;;5.48;98.34;98725.34;4137079;28;20298;-50
2023/04/27 04:21:00;;;;;;;5.88;3.58;;;;;;;5.45;98.69;98712.22;4121070;28;20202;-49
2023/04/27 04:23:02;;;;;;;4.05;2.45;;;;;;;5.45;98.74;98713.06;4116257;28;20218;-51
2023/04/27 04:25:04;;;;;;;7.72;3.60;;;;;;;5.42;99.00;98716.19;4128476;28;20606;-50
2023/04/27 04:27:14;;;;;;;3.63;3.30;;;;;;;5.42;99.20;98712.66;4132529;28;20218;-49
2023/04/27 04:29:18;;;;;;;3.08;2.85;;;;;;;5.47;98.92;98712.81;4121563;28;20269;-49
2023/04/27 04:31:20;;;;;;;3.15;2.95;;;;;;;5.44;98.74;98710.53;4138106;28;20754;-50
2023/04/27 04:33:23;;;;;;;4.88;2.85;;;;;;;5.42;98.77;98712.66;4136373;28;20209;-50
2023/04/27 04:35:24;;;;;;;3.92;3.30;;;;;;;5.42;98.80;98716.19;4133556;28;20218;-50
2023/04/27 04:37:27;;;;;;;3.97;2.90;;;;;;;5.40;99.22;98714.72;4135884;28;20218;-49
2023/04/27 04:39:32;;;;;;;7.00;3.33;;;;;;;5.46;98.88;98713.88;4133429;28;20332;-49
2023/04/27 04:41:33;;;;;;;3.33;3.13;;;;;;;5.48;98.43;98711.78;4136351;28;20722;-49
2023/04/27 04:43:35;;;;;;;5.88;3.78;;;;;;;5.56;98.10;98711.56;4118361;28;20236;-50
2023/04/27 04:45:37;;;;;;;3.05;2.63;;;;;;;5.50;98.09;98709.69;4123762;28;20210;-49
2023/04/27 04:47:39;;;;;;;5.07;3.03;;;;;;;5.50;98.57;98715.13;4128143;28;20233;-49
2023/04/27 04:49:41;;;;;;;4.35;3.22;;;;;;;5.49;98.61;98718.88;4135917;28;20229;-49
2023/04/27 04:52:04;;;;;;;5.75;3.53;;;;;;;5.45;98.31;98712.22;4137238;28;20667;-49
2023/04/27 04:54:10;;;;;;;3.75;2.70;;;;;;;5.49;99.41;98718.88;4131178;28;20241;-50
2023/04/27 04:56:12;;;;;;;3.70;3.10;;;;;;;5.52;99.51;98719.28;4133699;28;20632;-50
2023/04/27 04:58:14;;;;;;;4.63;2.65;;;;;;;5.55;100.00;98728.91;4131125;28;20583;-49
2023/04/27 05:00:16;;;;;;;4.30;3.60;;;;;;;5.58;99.81;98728.44;4116145;28;20273;-49
2023/04/27 05:02:18;;;;;;;4.60;3.40;;;;;;;5.59;100.00;98730.97;4132670;28;20249;-51
2023/04/27 05:04:20;;;;;;;3.33;3.05;;;;;;;5.55;99.79;98731.59;4150592;28;20699;-50
2023/04/27 05:06:23;;;;;;;4.10;3.63;;;;;;;5.55;100.00;98735.13;4131795;28;20851;-49
2023/04/27 05:08:25;;;;;;;3.53;3.22;;;;;;;5.56;100.00;98734.09;4121515;28;20308;-50
2023/04/27 05:10:27;;;;;;;4.40;2.78;;;;;;;5.65;99.91;98729.25;4122900;28;20301;-50
2023/04/27 05:12:29;;;;;;;3.63;2.90;;;;;;;5.66;99.86;98737.22;4121010;28;20735;-50
2023/04/27 05:14:30;;;;;;;3.17;2.85;;;;;;;5.65;99.98;98740.97;4131588;28;20332;-50
2023/04/27 05:16:32;;;;;;;4.43;4.03;;;;;;;5.64;100.00;98733.84;4120555;28;20601;-49
2023/04/27 05:18:35;;;;;;;3.58;3.28;;;;;;;5.69;100.00;98736.75;4149298;28;20217;-50
2023/04/27 05:20:39;;;;;;;3.35;2.78;;;;;;;5.66;100.00;98747.22;4133211;28;20316;-49
2023/04/27 05:22:41;;;;;;;2.72;2.53;;;;;;;5.70;100.00;98751.19;4129594;28;20209;-50
2023/04/27 05:24:43;;;;;;;3.25;2.95;;;;;;;5.63;100.00;98748.47;4136359;28;20307;-50
2023/04/27 05:26:45;;;;;;;3.35;2.67;;;;;;;5.65;100.00;98750.97;4118709;28;20366;-50
2023/04/27 05:28:48;;;;;;;3.72;3.40;;;;;;;5.59;100.00;98758.09;4136752;28;20240;-49
2023/04/27 05:30:51;;;;;;;7.38;3.47;;;;;;;5.63;100.00;98758.50;4133433;28;20694;-49
2023/04/27 05:32:53;;;;;;;5.38;3.50;;;;;;;5.56;100.00;98753.09;4121207;28;20291;-51
2023/04/27 05:34:55;;;;;;;3.17;2.97;;;;;;;5.60;100.00;98758.91;4134435;28;20726;-50
2023/04/27 05:36:56;;;;;;;3.47;3.17;;;;;;;5.71;100.00;98771.84;4134756;28;20214;-49
2023/04/27 05:38:58;;;;;;;7.22;3.30;;;;;;;5.76;100.00;98769.34;4117798;28;20337;-51
2023/04/27 05:41:00;;;;;;;3.60;3.33;;;;;;;5.80;100.00;98771.44;4126152;28;20831;-50
2023/04/27 05:43:04;;;;;;;6.72;3.10;;;;;;;6.03;100.00;98768.22;4138179;28;20707;-51
2023/04/27 05:45:06;;;;;;;10.10;4.07;;;;;;;6.17;100.00;98767.13;4135076;28;20235;-50
2023/04/27 05:47:08;;;;;;;5.20;4.70;;;;;;;6.39;100.00;98771.19;4139911;28;20241;-49
2023/04/27 05:49:10;;;;;;;4.53;3.78;;;;;;;6.57;100.00;98774.00;4135126;28;20228;-50
2023/04/27 05:51:12;;;;;;;4.45;3.72;;;;;;;6.27;100.00;98770.19;4121273;28;20297;-52
2023/04/27 05:53:14;;;;;;;4.40;3.40;;;;;;;6.14;98.59;98762.09;4137862;28;20308;-50
2023/04/27 05:55:15;;;;;;;4.18;3.72;;;;;;;5.98;99.22;98776.19;4149904;28;20562;-50
2023/04/27 05:57:17;;;;;;;6.28;3.58;;;;;;;6.02;99.50;98780.16;4124640;28;20272;-49
2023/04/27 05:59:19;;;;;;;5.25;3.95;;;;;;;6.04;99.37;98778.84;4111242;28;20241;-50
2023/04/27 06:01:20;;;;;;;2.47;2.17;;;;;;;5.91;99.83;98778.94;4114277;28;20225;-50
2023/04/27 06:03:22;;;;;;;7.65;3.70;;;;;;;5.82;100.00;98784.81;4146127;28;20304;-50
2023/04/27 06:05:25;;;;;;;6.00;3.65;;;;;;;5.82;100.00;98774.75;4137243;28;20264;-50
2023/04/27 06:07:40;;;;;;;8.20;3.55;;;;;;;5.82;100.00;98784.81;4134483;28;20579;-48
2023/04/27 06:09:42;;;;;;;5.38;2.90;;;;;;;5.89;100.00;98785.63;4120227;28;20589;-50
2023/04/27 06:11:46;;;;;;;6.93;3.75;;;;;;;5.64;100.00;98792.75;4133612;28;20579;-50
2023/04/27 06:13:48;;;;;;;4.25;3.60;;;;;;;5.91;100.00;98786.22;4130104;28;20236;-50
2023/04/27 06:15:50;;;;;;;3.63;3.22;;;;;;;6.05;100.00;98785.13;4129628;28;20252;-50
2023/04/27 06:17:51;;;;;;;4.40;3.92;;;;;;;6.50;100.00;98784.91;4127754;28;20218;-50
2023/04/27 06:19:53;;;;;;;9.65;4.32;;;;;;;6.87;100.00;98785.94;4138255;28;20260;-50
2023/04/27 06:21:55;;;;;;;4.85;4.38;;;;;;;7.21;99.60;98780.03;4131734;28;20217;-50
2023/04/27 06:23:57;;;;;;;3.55;3.25;;;;;;;7.16;95.68;98775.22;4151537;28;20303;-49
2023/04/27 06:26:00;;;;;;;4.35;3.95;;;;;;;7.01;95.06;98774.72;4137524;28;20260;-50
2023/04/27 06:28:03;;;;;;;3.78;3.47;;;;;;;7.06;95.33;98779.50;4132272;28;20699;-49
2023/04/27 06:30:06;;;;;;;11.05;3.60;;;;;;;7.41;94.71;98788.88;4138108;28;20229;-50
2023/04/27 06:32:09;;;;;;;7.10;3.33;;;;;;;7.66;97.03;98784.19;4152084;28;20250;-50
2023/04/27 06:34:12;;;;;;;5.03;3.35;;;;;;;7.86;94.31;98787.53;4120479;28;20217;-50
2023/04/27 06:36:28;;;;;;;3.92;3.28;;;;;;;7.98;92.46;98783.00;4150846;28;20247;-49
2023/04/27 06:38:34;;;;;;;5.53;3.97;;;;;;;8.18;92.07;98791.78;4135935;28;20224;-50
2023/04/27 06:40:36;;;;;;;4.05;3.45;;;;;;;8.67;91.73;98792.44;4149982;28;20252;-49
2023/04/27 06:42:39;;;;;;;5.13;4.65;;;;;;;8.91;91.43;98798.81;4143158;28;20683;-50
2023/04/27 06:44:55;;;;;;;7.57;4.18;;;;;;;9.18;87.50;98797.31;4135406;28;20618;-50
2023/04/27 06:47:21;;;;;;;5.38;3.88;;;;;;;9.22;86.21;98793.06;4153580;28;20671;-50
2023/04/27 06:49:34;;;;;;;6.45;3.50;;;;;;;9.41;86.28;98797.38;4135504;28;20223;-49
2023/04/27 06:51:37;;;;;;;5.57;3.92;;;;;;;9.51;87.61;98801.19;4125345;28;20218;-50
2023/04/27 06:53:40;;;;;;;4.55;3.95;;;;;;;9.68;85.01;98799.41;4122817;28;20640;-50
2023/04/27 06:55:45;;;;;;;4.93;3.97;;;;;;;9.60;86.15;98804.38;4122675;28;20206;-49
2023/04/27 06:57:56;;;;;;;7.07;5.53;;;;;;;9.58;84.34;98801.91;4143388;28;20259;-50
2023/04/27 06:59:59;;;;;;;5.38;4.88;;;;;;;9.46;83.61;98797.47;4133821;28;20271;-49
2023/04/27 07:02:02;;;;;;;4.25;3.70;;;;;;;9.83;86.04;98793.47;4134798;28;20208;-49
2023/04/27 07:04:04;;;;;;;7.05;4.30;;;;;;;10.36;82.70;98794.94;4137656;28;20296;-50
2023/04/27 07:06:17;;;;;;;5.35;3.97;;;;;;;10.62;81.21;98782.63;4135606;28;20225;-48
2023/04/27 07:08:20;;;;;;;3.35;3.05;;;;;;;11.07;79.07;98779.69;4141929;28;20275;-48
2023/04/27 07:10:22;;;;;;;8.02;3.97;;;;;;;10.68;78.49;98787.94;4135382;28;20679;-49
2023/04/27 07:12:24;;;;;;;6.00;3.45;;;;;;;10.42;77.18;98787.69;4137466;28;20673;-49
2023/04/27 07:14:26;;;;;;;4.35;3.50;;;;;;;10.65;81.26;98787.59;4137367;28;20209;-50
2023/04/27 07:16:32;;;;;;;4.13;3.28;;;;;;;10.85;78.92;98783.38;4135849;28;20296;-51
2023/04/27 07:18:34;;;;;;;3.83;3.53;;;;;;;11.68;76.18;98785.13;4142060;28;20209;-49
2023/04/27 07:20:40;;;;;;;5.32;3.47;;;;;;;11.07;72.64;98787.91;4152800;28;20229;-49
2023/04/27 07:22:42;;;;;;;4.25;3.85;;;;;;;11.24;77.09;98793.41;4137696;28;20676;-55
2023/04/27 07:24:44;;;;;;;6.45;3.13;;;;;;;11.40;74.40;98790.66;4124801;28;20229;-49
2023/04/27 07:26:47;;;;;;;3.63;3.42;;;;;;;11.29;74.68;98786.09;4112789;28;20708;-50
2023/04/27 07:28:49;;;;;;;3.13;2.80;;;;;;;11.96;72.81;98787.75;4140829;28;20241;-50
2023/04/27 07:30:51;;;;;;;4.75;3.00;;;;;;;12.37;71.66;98789.94;4128261;28;20744;-49
2023/04/27 07:32:53;;;;;;;3.58;2.58;;;;;;;12.50;70.99;98784.09;4137531;28;20224;-47
2023/04/27 07:35:02;;;;;;;5.50;3.25;;;;;;;12.36;70.08;98788.28;4139136;28;20242;-48
2023/04/27 07:37:05;;;;;;;14.20;4.00;;;;;;;12.69;69.40;98785.41;4125833;28;20304;-53
2023/04/27 07:39:08;;;;;;;5.65;2.97;;;;;;;12.74;69.12;98780.00;4124114;28;20256;-49
2023/04/27 07:41:10;;;;;;;6.43;3.40;;;;;;;12.68;64.78;98777.44;4154733;28;20845;-49
2023/04/27 07:43:12;;;;;;;3.42;2.75;;;;;;;13.00;64.95;98773.72;4136214;28;20245;-49
2023/04/27 07:45:18;;;;;;;5.45;2.90;;;;;;;13.00;64.88;98781.97;4124228;28;20230;-49
2023/04/27 07:47:21;;;;;;;3.25;2.83;;;;;;;13.20;67.88;98773.91;4154182;28;20875;-49
2023/04/27 07:49:25;;;;;;;4.70;2.45;;;;;;;12.88;65.69;98773.00;4153359;28;21319;-49
2023/04/27 07:51:34;;;;;;;2.85;2.53;;;;;;;12.68;67.49;98772.78;4139519;28;20231;-49
2023/04/27 07:53:36;;;;;;;8.80;2.72;;;;;;;13.47;65.68;98779.38;4135025;28;20768;-49
2023/04/27 07:55:38;;;;;;;5.18;3.13;;;;;;;13.08;67.10;98781.47;4153849;28;20228;-49
2023/04/27 07:57:43;;;;;;;2.67;2.47;;;;;;;13.66;66.99;98781.47;4131083;28;20213;-49
2023/04/27 07:59:46;;;;;;;3.55;2.30;;;;;;;14.23;64.82;98776.09;4136735;28;20277;-50
2023/04/27 08:01:47;;;;;;;4.97;2.38;;;;;;;13.70;62.53;98784.53;4137472;28;20310;-49
2023/04/27 08:03:50;;;;;;;4.50;2.45;;;;;;;13.90;64.56;98779.97;4152706;28;20763;-49
2023/04/27 08:05:56;;;;;;;5.10;1.85;;;;;;;14.59;61.67;98773.25;4141583;28;20225;-49
2023/04/27 08:07:58;;;;;;;2.92;2.10;;;;;;;14.16;62.85;98779.03;4138200;28;20205;-49
2023/04/27 08:10:05;;;;;;;4.15;2.33;;;;;;;14.55;61.21;98777.63;4116209;28;20332;-49
2023/04/27 08:12:07;;;;;;;4.80;2.78;;;;;;;14.72;61.58;98764.47;4133255;28;20237;-49
2023/04/27 08:14:12;;;;;;;5.35;2.90;;;;;;;14.71;61.80;98771.06;4147477;28;20213;-48
2023/04/27 08:16:17;;;;;;;4.25;3.10;;;;;;;15.05;60.88;98772.28;4134468;28;20213;-48
2023/04/27 08:18:20;;;;;;;3.13;2.33;;;;;;;14.90;60.38;98769.47;4147643;28;20287;-49
2023/04/27 08:20:23;;;;;;;4.57;2.10;;;;;;;15.07;60.65;98770.06;4135026;28;20234;-49
2023/04/27 08:22:26;;;;;;;4.55;2.25;;;;;;;15.13;61.66;98774.50;4133059;28;20268;-49
2023/04/27 08:24:27;;;;;;;5.53;2.50;;;;;;;14.98;61.48;98771.72;4133051;28;20304;-48
2023/04/27 08:26:29;;;;;;;5.13;2.45;;;;;;;15.24;61.92;98776.16;4146385;28;20224;-48
2023/04/27 08:28:31;;;;;;;4.97;2.90;;;;;;;14.92;61.48;98772.81;4138239;28;20971;-48
2023/04/27 08:30:33;;;;;;;4.93;2.60;;;;;;;14.44;62.39;98775.91;4137618;28;20233;-49
2023/04/27 08:32:35;;;;;;;8.10;2.60;;;;;;;15.10;61.94;98775.03;4123777;28;20205;-49
2023/04/27 08:34:37;;;;;;;4.05;2.30;;;;;;;15.43;60.91;98769.03;4117214;28;20206;-49
2023/04/27 08:36:38;;;;;;;4.65;2.55;;;;;;;15.09;60.63;98773.38;4132324;28;20205;-48
2023/04/27 08:38:40;;;;;;;3.53;2.25;;;;;;;14.93;61.21;98779.97;4131295;28;20688;-49
2023/04/27 08:40:44;;;;;;;5.78;2.78;;;;;;;14.63;61.72;98782.59;4131322;28;20225;-49
2023/04/27 08:42:58;;;;;;;5.07;2.22;;;;;;;13.76;62.91;98780.72;4130536;28;20212;-49
2023/04/27 08:45:00;;;;;;;3.20;2.33;;;;;;;14.29;62.57;98778.59;4138780;28;20241;-49
2023/04/27 08:47:03;;;;;;;3.70;2.83;;;;;;;14.50;62.28;98780.34;4132397;28;21247;-49
2023/04/27 08:49:06;;;;;;;9.20;2.60;;;;;;;14.58;61.69;98766.06;4140151;28;20211;-49
2023/04/27 08:51:20;;;;;;;8.05;6.90;;;;;;;14.59;62.36;98776.00;4135469;28;20603;-49
2023/04/27 08:53:22;;;;;;;11.05;6.55;;;;;;;14.83;61.88;98768.91;4133899;28;20328;-49
2023/04/27 08:55:24;;;;;;;10.25;5.60;;;;;;;14.87;61.10;98770.03;4131518;28;20335;-49
2023/04/27 08:57:26;;;;;;;7.65;4.47;;;;;;;14.84;61.16;98772.50;4134771;28;20694;-49
2023/04/27 08:59:31;;;;;;;3.38;2.30;;;;;;;14.83;60.15;98768.91;4131138;28;20255;-49
2023/04/27 09:01:32;;;;;;;8.80;2.47;;;;;;;14.98;58.97;98765.38;4128326;28;20245;-50
2023/04/27 09:03:35;;;;;;;8.25;2.78;;;;;;;14.80;60.75;98763.94;4114142;28;21183;-48
2023/04/27 09:05:49;;;;;;;3.25;2.22;;;;;;;14.94;60.28;98770.59;4115245;28;20254;-48
2023/04/27 09:08:09;;;;;;;2.90;2.03;;;;;;;15.28;60.40;98766.25;4155799;23;20291;-84
2023/04/27 09:10:11;;;;;;;7.05;2.20;;;;;;;14.91;59.74;98768.38;4113568;28;20207;-85
2023/04/27 09:12:14;;;;;;;5.40;2.28;;;;;;;15.03;59.36;98757.13;4122043;28;20223;-86
2023/04/27 09:14:19;;;;;;;2.67;2.00;;;;;;;15.34;59.42;98759.66;4128455;28;20690;-83
2023/04/27 09:16:25;;;;;;;3.28;2.17;;;;;;;15.72;58.86;98758.28;4144923;28;20216;-85
2023/04/27 09:18:27;;;;;;;9.98;2.50;;;;;;;15.89;58.24;98756.06;4143967;28;20215;-87
2023/04/27 09:20:29;;;;;;;3.83;2.22;;;;;;;15.85;60.07;98755.81;4142925;28;20703;-86
2023/04/27 09:22:41;;;;;;;5.03;2.63;;;;;;;16.14;57.17;98753.25;4113708;28;20708;-85
2023/04/27 09:24:53;;;;;;;3.00;2.03;;;;;;;16.36;55.99;98751.81;4141905;23;20490;-51
2023/04/27 09:26:55;;;;;;;2.63;1.90;;;;;;;16.30;56.15;98752.91;4134680;28;20296;-47
2023/04/27 09:28:58;;;;;;;7.50;2.08;;;;;;;15.57;54.21;98747.28;4138043;28;20233;-48
2023/04/27 09:31:01;;;;;;;8.90;2.20;;;;;;;16.19;55.66;98745.78;4143252;28;20244;-47
2023/04/27 09:33:03;;;;;;;5.72;2.15;;;;;;;15.59;52.94;98743.13;4137090;28;20312;-46
2023/04/27 09:35:20;;;;;;;2.63;1.42;;;;;;;16.24;55.00;98742.19;4136707;28;20393;-45
2023/04/27 09:37:22;;;;;;;5.68;1.70;;;;;;;16.30;54.48;98741.88;4159028;28;20239;-49
2023/04/27 09:39:24;;;;;;;3.90;1.65;;;;;;;16.79;53.71;98753.88;4126996;28;20398;-47
2023/04/27 09:41:27;;;;;;;2.25;1.70;;;;;;;17.24;52.76;98748.06;4142289;28;20654;-47
2023/04/27 09:43:30;;;;;;;2.22;1.60;;;;;;;17.61;51.22;98754.75;4142711;28;20610;-46
2023/04/27 09:45:32;;;;;;;2.47;1.60;;;;;;;17.63;50.74;98755.25;4121647;28;20234;-46